Terminal Aerodrome Forecast
Issued by NWS

Current Version | Previous Version | Text Only | Print | Product List | Glossary On
Versions: 1 2 3 4 5 6 7 8 9 10 11 12 13 14 15 16 17 18 19 20 21 22 23 24 25 26 27 28
000
FTUS42 KJAX 302325
TAFCRG
TAF
KCRG 302325Z 3100/3124 07010KT P6SM VCSH SCT025 BKN040 OVC060
      TEMPO 3100/3104 3SM SHRA BR BKN025
     FM310400 06005KT P6SM VCSH BKN015
     FM311200 23006KT P6SM VCSH BKN015
      TEMPO 3113/3117 SCT015 BKN025
     FM311700 24010KT P6SM VCSH SCT015 BKN025=

USA.gov is the U.S. government's official web portal to all federal, state and local government web resources and services.